Time;durP1;ratioP1;P1;durP2;ratioP2;P2;SDS_P1;SDS_P2;PMS_P1;PMS_P2;Temp;Humidity;BMP_temperature;BMP_pressure;BME280_temperature;BME280_humidity;BME280_pressure;Samples;Min_cycle;Max_cycle;Signal;HPM_P1;HPM_P2
2023/02/27 00:00:35;;;;;;;3.20;1.20;;;;;;;3.41;100.00;100365.30;105866;1256;61820;-59
2023/02/27 00:03:03;;;;;;;2.40;1.20;;;;;;;3.41;100.00;100365.48;106230;1256;62533;-61
2023/02/27 00:05:32;;;;;;;2.40;1.00;;;;;;;3.41;100.00;100362.77;105839;1255;75283;-59
2023/02/27 00:08:00;;;;;;;2.90;1.20;;;;;;;3.40;100.00;100366.28;105833;1256;67810;-59
2023/02/27 00:10:33;;;;;;;3.20;1.30;;;;;;;3.42;100.00;100371.48;105842;1266;74559;-59
2023/02/27 00:13:03;;;;;;;2.40;1.20;;;;;;;3.44;100.00;100373.80;105874;1257;62376;-58
2023/02/27 00:15:31;;;;;;;2.30;1.10;;;;;;;3.46;100.00;100371.95;105953;1256;60495;-62
2023/02/27 00:18:03;;;;;;;;;;;;;;;3.46;100.00;100366.27;105859;1256;75060;-58
2023/02/27 00:20:36;;;;;;;2.30;1.30;;;;;;;3.43;100.00;100366.90;105782;1254;67580;-59
2023/02/27 00:23:05;;;;;;;2.40;1.10;;;;;;;3.40;100.00;100356.85;105816;1256;74165;-58
2023/02/27 00:25:35;;;;;;;2.80;1.10;;;;;;;3.38;100.00;100352.03;105673;1254;63928;-58
2023/02/27 00:28:04;;;;;;;2.40;1.20;;;;;;;3.36;100.00;100354.45;105732;1256;60688;-58
2023/02/27 00:30:33;;;;;;;3.50;1.70;;;;;;;3.36;100.00;100370.08;105637;1254;74870;-58
2023/02/27 00:33:03;;;;;;;2.40;1.40;;;;;;;3.36;100.00;100377.27;106008;1256;68177;-59
2023/02/27 00:35:34;;;;;;;3.00;1.40;;;;;;;3.37;100.00;100371.69;105673;1256;74166;-57
2023/02/27 00:38:07;;;;;;;5.10;1.70;;;;;;;3.41;100.00;100381.48;105752;1254;62848;-61
2023/02/27 00:40:35;;;;;;;5.00;2.60;;;;;;;3.42;100.00;100395.33;105717;1257;62213;-58
2023/02/27 00:43:04;;;;;;;3.50;1.80;;;;;;;3.42;100.00;100409.55;105790;1256;75506;-59
2023/02/27 00:45:32;;;;;;;3.20;1.50;;;;;;;3.42;100.00;100411.08;105835;1257;66762;-57
2023/02/27 00:48:01;;;;;;;3.30;1.50;;;;;;;3.43;100.00;100411.70;105795;1257;74283;-61
2023/02/27 00:50:30;;;;;;;3.70;2.00;;;;;;;3.42;100.00;100409.40;105483;1256;61945;-58
2023/02/27 00:52:58;;;;;;;3.50;1.80;;;;;;;3.44;100.00;100401.31;105777;1253;61763;-57
2023/02/27 00:55:27;;;;;;;2.00;1.10;;;;;;;3.49;100.00;100401.58;105843;1256;75401;-58
2023/02/27 00:57:56;;;;;;;2.80;1.50;;;;;;;3.50;100.00;100400.75;105638;1260;67915;-58
2023/02/27 01:00:24;;;;;;;2.00;1.10;;;;;;;3.47;100.00;100402.25;105835;1257;72146;-58
2023/02/27 01:02:55;;;;;;;1.70;0.90;;;;;;;3.44;100.00;100403.70;105648;1260;60898;-57
2023/02/27 01:05:24;;;;;;;2.70;1.30;;;;;;;3.42;100.00;100402.02;105719;1257;61133;-57
2023/02/27 01:07:54;;;;;;;2.80;1.20;;;;;;;3.38;100.00;100409.69;105609;1257;73206;-59
2023/02/27 01:10:28;;;;;;;5.10;2.10;;;;;;;3.35;100.00;100423.79;105761;1257;67678;-59
2023/02/27 01:12:58;;;;;;;3.50;1.60;;;;;;;3.34;100.00;100431.91;105692;1256;73849;-57
2023/02/27 01:15:26;;;;;;;2.90;1.60;;;;;;;3.34;100.00;100428.64;105735;1257;62544;-57
2023/02/27 01:17:56;;;;;;;2.90;1.60;;;;;;;3.37;100.00;100428.88;105825;1256;61260;-58
2023/02/27 01:20:24;;;;;;;2.70;1.30;;;;;;;3.37;100.00;100433.86;106048;1255;75534;-61
2023/02/27 01:22:53;;;;;;;2.80;1.50;;;;;;;3.37;100.00;100435.58;105718;1256;67875;-58
2023/02/27 01:25:21;;;;;;;2.90;1.10;;;;;;;3.34;100.00;100438.79;105667;1255;73693;-57
2023/02/27 01:27:50;;;;;;;3.50;2.00;;;;;;;3.33;100.00;100433.52;105960;1257;62529;-60
2023/02/27 01:30:18;;;;;;;2.60;1.40;;;;;;;3.34;100.00;100428.15;105789;1256;60505;-58
2023/02/27 01:32:47;;;;;;;3.00;1.50;;;;;;;3.34;100.00;100428.67;105862;1257;75895;-58
2023/02/27 01:35:16;;;;;;;3.30;1.60;;;;;;;3.31;100.00;100426.30;105708;1260;68541;-57
2023/02/27 01:37:45;;;;;;;3.40;1.90;;;;;;;3.28;100.00;100428.26;105981;1256;74328;-59
2023/02/27 01:40:14;;;;;;;2.90;1.40;;;;;;;3.25;100.00;100433.89;105569;1256;62811;-58
2023/02/27 01:42:45;;;;;;;3.20;1.50;;;;;;;3.22;100.00;100438.23;106167;1254;61848;-62
2023/02/27 01:45:26;;;;;;;2.90;1.30;;;;;;;3.18;100.00;100443.61;105688;1256;75281;-58
2023/02/27 01:48:26;;;;;;;2.40;1.20;;;;;;;3.15;100.00;100443.67;105751;1257;68654;-58
2023/02/27 01:51:02;;;;;;;2.90;1.50;;;;;;;3.12;100.00;100443.54;105492;1260;73989;-57
2023/02/27 01:53:33;;;;;;;3.20;1.70;;;;;;;3.07;100.00;100446.89;105726;1256;62561;-59
2023/02/27 01:56:11;;;;;;;3.10;1.60;;;;;;;3.05;100.00;100460.48;105788;1260;61414;-58
2023/02/27 01:58:40;;;;;;;3.80;1.90;;;;;;;3.04;100.00;100464.01;105703;1255;74401;-57
2023/02/27 02:01:09;;;;;;;3.20;1.90;;;;;;;3.04;100.00;100466.39;105418;1261;67902;-57
2023/02/27 02:03:42;;;;;;;3.10;1.70;;;;;;;3.03;100.00;100467.50;105642;1254;73541;-61
2023/02/27 02:06:11;;;;;;;3.00;1.50;;;;;;;3.01;100.00;100472.63;105868;1260;62703;-57
2023/02/27 02:08:44;;;;;;;4.80;1.80;;;;;;;3.00;100.00;100471.20;105648;1259;61629;-57
2023/02/27 02:11:14;;;;;;;4.30;1.80;;;;;;;3.01;100.00;100478.03;105615;1256;73530;-57
2023/02/27 02:13:45;;;;;;;3.60;1.90;;;;;;;3.02;100.00;100472.09;105734;1258;68672;-58
2023/02/27 02:16:34;;;;;;;3.70;2.00;;;;;;;3.02;100.00;100462.63;105767;1257;74235;-58
2023/02/27 02:19:15;;;;;;;4.20;1.80;;;;;;;3.03;100.00;100468.86;105556;1260;62904;-57
2023/02/27 02:21:51;;;;;;;4.00;1.90;;;;;;;3.03;100.00;100475.41;105764;1257;60832;-57
2023/02/27 02:24:42;;;;;;;3.10;1.60;;;;;;;3.02;100.00;100480.66;105718;1257;75780;-58
2023/02/27 02:27:29;;;;;;;4.60;2.10;;;;;;;3.00;100.00;100484.75;105766;1256;68485;-57
2023/02/27 02:30:16;;;;;;;3.40;2.10;;;;;;;2.98;100.00;100490.45;105656;1258;73190;-57
2023/02/27 02:33:23;;;;;;;3.70;1.90;;;;;;;2.94;100.00;100491.92;105764;1258;61707;-57
2023/02/27 02:36:17;;;;;;;3.00;1.70;;;;;;;2.88;100.00;100502.41;105979;1254;61988;-61
2023/02/27 02:38:54;;;;;;;3.70;2.10;;;;;;;2.85;100.00;100497.38;105737;1259;75470;-57
2023/02/27 02:41:38;;;;;;;3.40;1.70;;;;;;;2.81;100.00;100498.36;106105;1257;67656;-60
2023/02/27 02:44:29;;;;;;;3.60;1.90;;;;;;;2.74;100.00;100502.52;105847;1264;74218;-60
2023/02/27 02:47:19;;;;;;;3.60;2.00;;;;;;;2.67;100.00;100497.39;106032;1257;63458;-61
2023/02/27 02:49:59;;;;;;;3.70;1.90;;;;;;;2.64;100.00;100501.83;105630;1254;62258;-58
2023/02/27 02:52:34;;;;;;;3.90;1.80;;;;;;;2.62;100.00;100502.86;105455;1255;75378;-57
2023/02/27 02:55:28;;;;;;;4.40;2.50;;;;;;;2.59;100.00;100506.98;105774;1257;68599;-57
2023/02/27 02:58:28;;;;;;;4.10;2.30;;;;;;;2.59;100.00;100510.26;105605;1259;74622;-57
2023/02/27 03:01:37;;;;;;;3.80;2.30;;;;;;;2.60;100.00;100509.39;105567;1259;61849;-57
2023/02/27 03:04:09;;;;;;;4.80;2.50;;;;;;;2.56;100.00;100503.00;105796;1260;60887;-58
2023/02/27 03:06:47;;;;;;;4.10;2.30;;;;;;;2.52;100.00;100509.98;105384;1260;74266;-62
2023/02/27 03:09:37;;;;;;;4.30;2.40;;;;;;;2.50;100.00;100515.00;105468;1260;67040;-58
2023/02/27 03:12:09;;;;;;;4.80;2.60;;;;;;;2.46;100.00;100513.89;105600;1262;74181;-58
2023/02/27 03:14:57;;;;;;;5.00;2.50;;;;;;;2.46;100.00;100520.96;105742;1260;62496;-59
2023/02/27 03:17:40;;;;;;;3.80;2.30;;;;;;;2.44;100.00;100524.23;105622;1268;60428;-58
2023/02/27 03:20:16;;;;;;;4.20;2.70;;;;;;;2.43;100.00;100531.46;105379;1255;74338;-61
2023/02/27 03:22:46;;;;;;;4.60;2.80;;;;;;;2.42;100.00;100534.66;105481;1256;430238;-61
2023/02/27 03:25:19;;;;;;;4.80;3.00;;;;;;;2.42;100.00;100530.71;105503;1259;73218;-57
2023/02/27 03:27:56;;;;;;;4.80;2.90;;;;;;;2.42;100.00;100524.52;105464;1255;63476;-61
2023/02/27 03:30:27;;;;;;;4.80;2.90;;;;;;;2.42;100.00;100521.77;105577;1258;61637;-58
2023/02/27 03:32:58;;;;;;;;;;;;;;;2.42;100.00;100516.99;105578;1260;73502;-58
2023/02/27 03:35:56;;;;;;;4.70;2.90;;;;;;;2.42;100.00;100526.08;105235;1260;67675;-57
2023/02/27 03:38:31;;;;;;;5.50;3.00;;;;;;;2.42;100.00;100520.41;105411;1258;72317;-57
2023/02/27 03:41:10;;;;;;;4.10;2.50;;;;;;;2.42;100.00;100519.73;105953;1254;62856;-60
2023/02/27 03:43:49;;;;;;;4.70;2.40;;;;;;;2.43;100.00;100527.52;105274;1254;61579;-59
2023/02/27 03:46:22;;;;;;;5.90;2.90;;;;;;;2.44;100.00;100535.66;105666;1254;75642;-58
2023/02/27 03:48:52;;;;;;;5.20;3.50;;;;;;;2.43;100.00;100535.80;105511;1261;68620;-57
2023/02/27 03:51:23;;;;;;;6.20;3.60;;;;;;;2.42;100.00;100540.98;105665;1260;74192;-58
2023/02/27 03:54:12;;;;;;;6.50;2.90;;;;;;;2.43;100.00;100549.31;105724;1268;61405;-59
2023/02/27 03:57:02;;;;;;;5.30;3.40;;;;;;;2.46;100.00;100556.25;105743;1261;61702;-57
2023/02/27 03:59:31;;;;;;;5.50;3.00;;;;;;;2.48;100.00;100552.31;105456;1257;75417;-57
2023/02/27 04:02:02;;;;;;;7.60;3.60;;;;;;;2.47;100.00;100556.23;105589;1257;68420;-58
2023/02/27 04:04:31;;;;;;;6.80;3.30;;;;;;;2.45;100.00;100563.88;105519;1257;74089;-57
2023/02/27 04:07:37;;;;;;;4.70;3.00;;;;;;;2.46;100.00;100567.11;105710;1254;62730;-56
2023/02/27 04:10:17;;;;;;;6.00;3.00;;;;;;;2.44;100.00;100570.33;105618;1254;62333;-57
2023/02/27 04:13:10;;;;;;;6.40;3.20;;;;;;;2.46;100.00;100573.31;105812;1255;75712;-56
2023/02/27 04:15:59;;;;;;;4.80;2.90;;;;;;;2.42;100.00;100570.15;105814;1254;68601;-61
2023/02/27 04:18:49;;;;;;;5.80;3.00;;;;;;;2.42;100.00;100563.10;105807;1255;74125;-56
2023/02/27 04:21:30;;;;;;;4.90;3.10;;;;;;;2.42;100.00;100564.33;105636;1254;62629;-56
2023/02/27 04:24:20;;;;;;;5.00;3.20;;;;;;;2.41;100.00;100569.52;105803;1254;61151;-56
2023/02/27 04:26:56;;;;;;;5.30;3.00;;;;;;;2.41;100.00;100572.11;105746;1254;74432;-57
2023/02/27 04:29:37;;;;;;;5.70;3.60;;;;;;;2.40;100.00;100567.89;105708;1259;68528;-57
2023/02/27 04:32:20;;;;;;;8.30;3.70;;;;;;;2.40;100.00;100572.01;105606;1257;74248;-59
2023/02/27 04:34:57;;;;;;;5.00;2.80;;;;;;;2.41;100.00;100573.84;105834;1254;61858;-57
2023/02/27 04:37:32;;;;;;;6.10;3.20;;;;;;;2.40;100.00;100576.33;105605;1259;60435;-58
2023/02/27 04:40:06;;;;;;;6.80;3.50;;;;;;;2.39;100.00;100580.83;105943;1256;75388;-58
2023/02/27 04:42:38;;;;;;;5.40;3.00;;;;;;;2.41;100.00;100581.17;105592;1260;67344;-59
2023/02/27 04:45:15;;;;;;;6.80;3.20;;;;;;;2.39;100.00;100577.10;105632;1257;73123;-60
2023/02/27 04:47:55;;;;;;;6.20;3.60;;;;;;;2.38;100.00;100576.63;106051;1254;62953;-61
2023/02/27 04:50:34;;;;;;;5.30;3.20;;;;;;;2.37;100.00;100576.21;105694;1254;61961;-58
2023/02/27 04:53:07;;;;;;;7.80;3.90;;;;;;;2.39;100.00;100580.30;105536;1259;75677;-62
2023/02/27 04:55:44;;;;;;;7.80;3.90;;;;;;;2.41;100.00;100586.70;105672;1255;68566;-58
2023/02/27 04:58:17;;;;;;;6.80;3.90;;;;;;;2.42;100.00;100584.55;105708;1253;73259;-59
2023/02/27 05:00:48;;;;;;;6.50;4.10;;;;;;;2.42;100.00;100593.45;105672;1254;62837;-58
2023/02/27 05:03:23;;;;;;;6.40;4.10;;;;;;;2.42;100.00;100601.22;105805;1253;61853;-57
2023/02/27 05:05:54;;;;;;;8.40;4.50;;;;;;;2.41;100.00;100586.02;105856;1254;74406;-58
2023/02/27 05:08:34;;;;;;;8.00;4.80;;;;;;;2.40;100.00;100554.20;105868;1257;67755;-58
2023/02/27 05:11:28;;;;;;;7.70;5.00;;;;;;;2.37;100.00;100489.59;105982;1257;73801;-61
2023/02/27 05:14:03;;;;;;;7.10;4.80;;;;;;;2.30;100.00;100473.05;105861;1257;61421;-57
2023/02/27 05:16:44;;;;;;;8.20;5.60;;;;;;;2.23;100.00;100508.77;105474;1254;61730;-63
2023/02/27 05:19:17;;;;;;;7.60;5.40;;;;;;;2.18;100.00;100514.27;105782;1254;75441;-57
2023/02/27 05:22:10;;;;;;;10.50;6.10;;;;;;;2.17;100.00;100509.08;105713;1254;67186;-58
2023/02/27 05:24:54;;;;;;;10.70;6.20;;;;;;;2.15;100.00;100527.69;105701;1254;74382;-58
2023/02/27 05:27:24;;;;;;;12.00;6.80;;;;;;;2.17;100.00;100536.44;105973;1258;61905;-57
2023/02/27 05:29:58;;;;;;;40.40;15.80;;;;;;;2.18;100.00;100534.44;105943;1254;61322;-61
2023/02/27 05:32:28;;;;;;;19.60;9.80;;;;;;;2.18;100.00;100526.97;105642;1254;74715;-57
2023/02/27 05:35:03;;;;;;;14.20;7.80;;;;;;;2.20;100.00;100522.38;105915;1254;68628;-57
2023/02/27 05:37:36;;;;;;;21.90;12.20;;;;;;;2.22;100.00;100517.27;105670;1260;74147;-58
2023/02/27 05:40:07;;;;;;;15.00;8.30;;;;;;;2.24;100.00;100519.66;105862;1264;62657;-58
2023/02/27 05:42:49;;;;;;;13.50;8.40;;;;;;;2.25;100.00;100527.44;105734;1253;61911;-59
2023/02/27 05:45:22;;;;;;;19.10;10.40;;;;;;;2.27;100.00;100536.54;106158;1255;74684;-63
2023/02/27 05:47:56;;;;;;;14.40;7.40;;;;;;;2.28;100.00;100566.80;105412;1263;67028;-59
2023/02/27 05:50:27;;;;;;;10.40;6.20;;;;;;;2.32;100.00;100594.13;105674;1260;74552;-59
2023/02/27 05:52:57;;;;;;;8.60;5.10;;;;;;;2.34;100.00;100606.10;105849;1253;61690;-59
2023/02/27 05:55:31;;;;;;;9.70;5.20;;;;;;;2.36;100.00;100622.23;105739;1256;60532;-61
2023/02/27 05:58:18;;;;;;;8.40;5.30;;;;;;;2.42;100.00;100623.69;105707;1256;75144;-57
2023/02/27 06:00:51;;;;;;;17.40;9.10;;;;;;;2.46;100.00;100617.20;105755;1255;67685;-57
2023/02/27 06:03:19;;;;;;;14.60;7.80;;;;;;;2.48;100.00;100615.48;105741;1254;74781;-60
2023/02/27 06:05:48;;;;;;;15.60;6.50;;;;;;;2.50;100.00;100618.05;105866;1254;61734;-59
2023/02/27 06:08:17;;;;;;;9.40;6.00;;;;;;;2.51;100.00;100617.27;105495;1254;60800;-58
2023/02/27 06:10:51;;;;;;;7.50;5.10;;;;;;;2.52;100.00;100607.92;105644;1254;75583;-58
2023/02/27 06:13:21;;;;;;;8.30;4.80;;;;;;;2.54;100.00;100604.85;105677;1257;67539;-57
2023/02/27 06:15:50;;;;;;;8.10;4.60;;;;;;;2.57;100.00;100607.89;105538;1254;73971;-57
2023/02/27 06:18:19;;;;;;;8.60;5.00;;;;;;;2.60;100.00;100610.05;105786;1253;63326;-61
2023/02/27 06:20:49;;;;;;;8.60;5.10;;;;;;;2.61;100.00;100613.06;105855;1253;62266;-57
2023/02/27 06:23:17;;;;;;;10.90;5.90;;;;;;;2.63;100.00;100613.73;105751;1256;75389;-56
2023/02/27 06:25:47;;;;;;;13.80;7.50;;;;;;;2.67;100.00;100617.00;105806;1254;68500;-58
2023/02/27 06:28:16;;;;;;;13.50;7.70;;;;;;;2.73;100.00;100622.39;105739;1254;72956;-61
2023/02/27 06:30:44;;;;;;;11.10;6.60;;;;;;;2.77;100.00;100619.48;105908;1254;62407;-59
2023/02/27 06:33:14;;;;;;;10.30;6.80;;;;;;;2.83;100.00;100621.41;105890;1253;60399;-57
2023/02/27 06:35:46;;;;;;;8.90;5.70;;;;;;;2.88;100.00;100622.92;105977;1253;74271;-57
2023/02/27 06:38:15;;;;;;;10.00;6.30;;;;;;;2.92;100.00;100625.63;105681;1254;69157;-56
2023/02/27 06:40:44;;;;;;;7.60;4.70;;;;;;;2.98;100.00;100620.08;106003;1254;73762;-58
2023/02/27 06:43:13;;;;;;;7.60;3.90;;;;;;;2.99;100.00;100624.58;105760;1255;62855;-57
2023/02/27 06:45:48;;;;;;;8.70;5.10;;;;;;;3.01;100.00;100622.92;105776;1254;61259;-57
2023/02/27 06:48:17;;;;;;;8.00;5.10;;;;;;;3.03;100.00;100619.99;105768;1254;75338;-62
2023/02/27 06:50:53;;;;;;;9.40;5.70;;;;;;;3.05;100.00;100617.37;105826;1254;69593;-62
2023/02/27 06:53:22;;;;;;;12.40;6.40;;;;;;;3.10;100.00;100615.74;105845;1254;74250;-58
2023/02/27 06:55:51;;;;;;;9.30;6.30;;;;;;;3.15;100.00;100608.31;105740;1257;61697;-58
2023/02/27 06:58:19;;;;;;;10.10;6.10;;;;;;;3.24;100.00;100609.48;105992;1254;61863;-62
2023/02/27 07:00:48;;;;;;;9.70;6.10;;;;;;;3.36;100.00;100616.58;105609;1254;75168;-57
2023/02/27 07:03:17;;;;;;;10.60;6.50;;;;;;;3.47;100.00;100612.73;105805;1254;67193;-57
2023/02/27 07:05:49;;;;;;;9.00;5.30;;;;;;;3.58;100.00;100611.80;105742;1257;73199;-58
2023/02/27 07:08:18;;;;;;;11.50;5.90;;;;;;;3.66;100.00;100609.02;106091;1254;63499;-58
2023/02/27 07:10:47;;;;;;;10.00;5.50;;;;;;;3.68;100.00;100609.46;105758;1254;60961;-57
2023/02/27 07:13:17;;;;;;;10.60;5.80;;;;;;;3.69;100.00;100608.30;105815;1256;74365;-57
2023/02/27 07:15:47;;;;;;;9.50;5.00;;;;;;;3.71;100.00;100611.55;105805;1257;68548;-57
2023/02/27 07:18:16;;;;;;;11.30;5.60;;;;;;;3.76;100.00;100609.61;105944;1254;74442;-59
2023/02/27 07:20:44;;;;;;;8.20;5.20;;;;;;;3.77;100.00;100604.21;105589;1254;62152;-57
2023/02/27 07:23:13;;;;;;;11.70;5.80;;;;;;;3.71;100.00;100601.40;105898;1254;61684;-57
2023/02/27 07:25:42;;;;;;;9.90;6.10;;;;;;;3.66;100.00;100598.02;105853;1253;75354;-57
2023/02/27 07:28:11;;;;;;;15.00;5.40;;;;;;;3.61;100.00;100592.92;105895;1257;67529;-61
2023/02/27 07:30:40;;;;;;;10.30;6.30;;;;;;;3.59;100.00;100583.03;105764;1257;72803;-57
2023/02/27 07:33:09;;;;;;;10.30;6.10;;;;;;;3.57;100.00;100583.15;105809;1253;63155;-56
2023/02/27 07:35:38;;;;;;;10.20;5.50;;;;;;;3.54;100.00;100573.96;105916;1253;61533;-57
2023/02/27 07:38:06;;;;;;;9.50;5.70;;;;;;;3.55;100.00;100573.86;106155;1257;75566;-60
2023/02/27 07:40:35;;;;;;;9.70;5.80;;;;;;;3.59;100.00;100570.97;105846;1254;69357;-57
2023/02/27 07:43:04;;;;;;;9.80;6.00;;;;;;;3.69;100.00;100577.06;105753;1254;73382;-58
2023/02/27 07:45:34;;;;;;;11.40;6.10;;;;;;;3.72;100.00;100572.64;105797;1254;63323;-56
2023/02/27 07:48:02;;;;;;;10.80;6.70;;;;;;;3.73;100.00;100574.44;106064;1254;61836;-57
2023/02/27 07:50:32;;;;;;;10.10;5.90;;;;;;;3.76;100.00;100565.73;105723;1256;73960;-56
2023/02/27 07:53:01;;;;;;;12.30;6.60;;;;;;;3.78;100.00;100553.20;105848;1254;68598;-57
2023/02/27 07:55:30;;;;;;;13.80;8.10;;;;;;;3.80;100.00;100554.88;105923;1254;73079;-57
2023/02/27 07:58:02;;;;;;;12.90;8.30;;;;;;;3.84;100.00;100558.38;105879;1256;62548;-59
2023/02/27 08:00:31;;;;;;;11.00;7.10;;;;;;;3.87;100.00;100565.84;105913;1257;61628;-57
2023/02/27 08:03:00;;;;;;;13.30;7.00;;;;;;;3.92;100.00;100569.21;106033;1256;74319;-57
2023/02/27 08:05:28;;;;;;;11.60;6.80;;;;;;;3.94;100.00;100564.89;105820;1254;68945;-57
2023/02/27 08:07:57;;;;;;;12.20;7.10;;;;;;;3.95;100.00;100567.58;105958;1255;72796;-60
2023/02/27 08:10:26;;;;;;;11.50;6.50;;;;;;;3.94;100.00;100562.68;105775;1254;63539;-56
2023/02/27 08:12:55;;;;;;;13.00;8.20;;;;;;;3.92;100.00;100560.61;105964;1256;60860;-56
2023/02/27 08:15:23;;;;;;;12.20;7.90;;;;;;;3.97;100.00;100556.09;105808;1254;74813;-57
2023/02/27 08:17:52;;;;;;;14.60;7.50;;;;;;;4.02;100.00;100561.10;105987;1257;67757;-60
2023/02/27 08:20:21;;;;;;;13.60;7.10;;;;;;;4.07;100.00;100561.38;105630;1254;74802;-57
2023/02/27 08:22:50;;;;;;;12.70;7.50;;;;;;;4.11;100.00;100562.89;105831;1257;61483;-57
2023/02/27 08:25:20;;;;;;;14.50;7.80;;;;;;;4.15;100.00;100564.27;105873;1254;60815;-57
2023/02/27 08:27:49;;;;;;;15.90;8.50;;;;;;;4.18;100.00;100565.40;106082;1253;75971;-57
2023/02/27 08:30:17;;;;;;;13.90;8.40;;;;;;;4.20;100.00;100569.02;105733;1253;67110;-57
2023/02/27 08:32:46;;;;;;;15.80;8.50;;;;;;;4.25;100.00;100571.65;105757;1254;72231;-57
2023/02/27 08:35:15;;;;;;;14.90;8.80;;;;;;;4.38;100.00;100568.11;105732;1255;62302;-55
2023/02/27 08:37:44;;;;;;;20.00;11.80;;;;;;;4.48;100.00;100560.85;105764;1257;61146;-56
2023/02/27 08:40:12;;;;;;;16.00;8.70;;;;;;;4.57;100.00;100554.70;105834;1257;75385;-60
2023/02/27 08:42:41;;;;;;;13.50;9.30;;;;;;;4.68;100.00;100555.16;105698;1254;67806;-56
2023/02/27 08:45:10;;;;;;;14.30;9.40;;;;;;;4.75;100.00;100556.92;105698;1253;73228;-57
2023/02/27 08:47:41;;;;;;;15.70;9.10;;;;;;;4.78;100.00;100561.27;105662;1254;63202;-57
2023/02/27 08:50:13;;;;;;;13.20;8.30;;;;;;;4.87;100.00;100570.46;105749;1254;61399;-59
2023/02/27 08:52:42;;;;;;;14.60;8.30;;;;;;;4.99;100.00;100574.37;105839;1254;75311;-57
2023/02/27 08:55:11;;;;;;;70.30;37.30;;;;;;;5.02;100.00;100569.38;106056;1256;67698;-59
2023/02/27 08:57:40;;;;;;;26.30;14.20;;;;;;;5.04;100.00;100566.34;105737;1253;73712;-57
2023/02/27 09:00:09;;;;;;;44.50;18.70;;;;;;;5.06;100.00;100560.61;105881;1253;63342;-62
2023/02/27 09:02:40;;;;;;;27.90;13.80;;;;;;;5.08;100.00;100564.73;105572;1254;61960;-57
2023/02/27 09:05:10;;;;;;;152.70;65.00;;;;;;;5.11;100.00;100563.45;105951;1257;75547;-58
2023/02/27 09:07:40;;;;;;;68.30;31.00;;;;;;;5.16;100.00;100563.73;105489;1253;68557;-62
2023/02/27 09:10:11;;;;;;;31.50;15.50;;;;;;;5.21;100.00;100562.70;105750;1256;73194;-56
2023/02/27 09:12:43;;;;;;;52.50;26.60;;;;;;;5.26;100.00;100562.21;105965;1254;63647;-58
2023/02/27 09:15:12;;;;;;;18.80;12.10;;;;;;;5.31;100.00;100556.49;105746;1256;61655;-57
2023/02/27 09:17:40;;;;;;;17.90;11.00;;;;;;;5.29;100.00;100554.17;105716;1253;75295;-63
2023/02/27 09:20:11;;;;;;;33.30;16.90;;;;;;;5.27;100.00;100555.09;105815;1253;67371;-57
2023/02/27 09:22:40;;;;;;;24.80;14.40;;;;;;;5.30;100.00;100553.42;105834;1257;73919;-59
2023/02/27 09:25:11;;;;;;;15.40;9.90;;;;;;;5.37;100.00;100551.27;105725;1257;60910;-57
2023/02/27 09:27:40;;;;;;;27.40;12.60;;;;;;;5.40;100.00;100554.23;105878;1253;61131;-62
2023/02/27 09:30:09;;;;;;;24.80;14.30;;;;;;;5.46;100.00;100559.54;105620;1256;75086;-58
2023/02/27 09:32:38;;;;;;;27.10;16.50;;;;;;;5.55;100.00;100557.84;105931;1253;68028;-60
2023/02/27 09:35:08;;;;;;;21.80;12.90;;;;;;;5.60;100.00;100557.02;105890;1254;74146;-56
2023/02/27 09:37:36;;;;;;;19.30;12.30;;;;;;;5.68;100.00;100566.49;105795;1256;60860;-57
2023/02/27 09:40:06;;;;;;;21.70;11.50;;;;;;;5.72;100.00;100569.20;105819;1253;60514;-57
2023/02/27 09:42:40;;;;;;;18.90;11.70;;;;;;;5.74;100.00;100572.10;105832;1254;75285;-61
2023/02/27 09:45:22;;;;;;;18.60;10.60;;;;;;;5.71;100.00;100573.25;105548;1257;68931;-57
2023/02/27 09:47:55;;;;;;;16.30;9.80;;;;;;;5.73;100.00;100570.43;105648;1254;73151;-56
2023/02/27 09:50:37;;;;;;;17.80;11.00;;;;;;;5.79;100.00;100571.29;105441;1275;63745;-57
2023/02/27 09:53:25;;;;;;;18.50;11.90;;;;;;;5.91;100.00;100572.95;105496;1254;61901;-56
2023/02/27 09:55:56;;;;;;;17.90;12.10;;;;;;;6.07;100.00;100573.65;105936;1254;75335;-58
2023/02/27 09:58:28;;;;;;;23.30;14.40;;;;;;;6.22;100.00;100570.70;105683;1254;67674;-57
2023/02/27 10:01:31;;;;;;;19.30;11.80;;;;;;;6.33;100.00;100568.41;105565;1253;74217;-58
2023/02/27 10:04:12;;;;;;;18.40;11.80;;;;;;;6.44;100.00;100567.06;105784;1254;63913;-57
2023/02/27 10:06:52;;;;;;;16.40;10.80;;;;;;;6.50;100.00;100568.86;105923;1256;62029;-61
2023/02/27 10:09:46;;;;;;;16.70;10.50;;;;;;;6.56;100.00;100563.73;105507;1253;74274;-57
2023/02/27 10:12:17;;;;;;;20.80;11.80;;;;;;;6.67;100.00;100566.21;105730;1253;68267;-58
2023/02/27 10:14:56;;;;;;;17.20;12.90;;;;;;;6.75;100.00;100561.55;105771;1256;74188;-56
2023/02/27 10:22:17;;;;;;;20.30;12.80;;;;;;;6.41;100.00;100549.74;102205;1292;600866;-56
2023/02/27 10:24:49;;;;;;;16.50;10.90;;;;;;;6.43;100.00;100548.86;104693;1272;62439;-56
2023/02/27 10:27:19;;;;;;;17.10;11.70;;;;;;;6.40;100.00;100548.05;105512;1254;61857;-57
2023/02/27 10:29:48;;;;;;;20.40;12.10;;;;;;;6.36;100.00;100545.86;105490;1259;73931;-57
2023/02/27 10:32:21;;;;;;;18.70;12.10;;;;;;;6.28;100.00;100547.48;105522;1257;66821;-57
2023/02/27 10:35:06;;;;;;;18.20;12.90;;;;;;;6.28;100.00;100543.52;105400;1255;214153;-57
2023/02/27 10:37:36;;;;;;;19.30;13.30;;;;;;;6.30;100.00;100552.46;105605;1256;63336;-57
2023/02/27 10:40:05;;;;;;;17.80;10.80;;;;;;;6.23;100.00;100556.77;105789;1255;61572;-56
2023/02/27 10:42:36;;;;;;;20.50;12.90;;;;;;;6.23;100.00;100555.55;105755;1255;74082;-56
2023/02/27 10:45:13;;;;;;;19.50;12.10;;;;;;;6.31;100.00;100549.13;106009;1257;67631;-60
2023/02/27 10:47:44;;;;;;;20.80;13.80;;;;;;;6.45;100.00;100542.24;105776;1258;73175;-56
2023/02/27 10:50:19;;;;;;;19.30;12.80;;;;;;;6.52;100.00;100537.54;105813;1256;60868;-56
2023/02/27 10:52:52;;;;;;;20.60;13.50;;;;;;;6.46;100.00;100530.34;105742;1256;61419;-61
2023/02/27 10:55:24;;;;;;;21.20;14.20;;;;;;;6.31;100.00;100526.68;105772;1256;73996;-56
2023/02/27 10:57:54;;;;;;;17.00;12.70;;;;;;;6.16;100.00;100532.81;105600;1259;68356;-57
2023/02/27 11:00:27;;;;;;;17.70;11.60;;;;;;;6.03;100.00;100529.86;105803;1254;74215;-56
2023/02/27 11:02:56;;;;;;;20.80;12.50;;;;;;;5.91;100.00;100532.61;105776;1258;61319;-58
2023/02/27 11:05:30;;;;;;;18.30;12.70;;;;;;;5.79;100.00;100526.80;105852;1259;61798;-56
2023/02/27 11:08:19;;;;;;;21.70;13.20;;;;;;;5.69;100.00;100524.96;105789;1258;74761;-57
2023/02/27 11:10:59;;;;;;;22.00;13.70;;;;;;;5.59;100.00;100530.05;105594;1266;67695;-57
2023/02/27 11:13:35;;;;;;;22.70;13.60;;;;;;;5.50;100.00;100531.08;105700;1258;74097;-57
2023/02/27 11:16:05;;;;;;;23.30;15.10;;;;;;;5.41;100.00;100528.29;105727;1259;64614;-58
2023/02/27 11:18:42;;;;;;;24.80;14.10;;;;;;;5.40;100.00;100523.23;105607;1257;61106;-56
2023/02/27 11:21:23;;;;;;;21.10;12.40;;;;;;;5.42;100.00;100530.65;105689;1257;74590;-56
2023/02/27 11:24:00;;;;;;;23.00;13.30;;;;;;;5.43;100.00;100532.42;106007;1257;67159;-60
2023/02/27 11:26:35;;;;;;;21.90;14.00;;;;;;;5.43;100.00;100538.67;105642;1257;73926;-56
2023/02/27 11:29:13;;;;;;;22.50;13.80;;;;;;;5.38;100.00;100535.79;105617;1254;62572;-57
2023/02/27 11:32:04;;;;;;;20.90;12.30;;;;;;;5.30;100.00;100531.70;105716;1257;62095;-58
2023/02/27 11:34:35;;;;;;;20.50;13.20;;;;;;;5.25;100.00;100535.47;105824;1254;74293;-57
2023/02/27 11:37:17;;;;;;;23.60;13.20;;;;;;;5.22;100.00;100536.80;106013;1254;67830;-62
2023/02/27 11:39:50;;;;;;;17.80;11.40;;;;;;;5.17;100.00;100537.05;105685;1253;72580;-56
2023/02/27 11:42:30;;;;;;;19.50;11.60;;;;;;;5.18;100.00;100532.98;105590;1257;62693;-57
2023/02/27 11:45:24;;;;;;;17.20;12.20;;;;;;;5.19;100.00;100532.38;105808;1253;61641;-55
2023/02/27 11:48:20;;;;;;;21.00;12.30;;;;;;;5.19;100.00;100530.33;105888;1255;73331;-57